TENO2: Tenkiller Lake

Data processed at Fri Mar 09 2018 23:33


All information presented herein is the property of the government of the United States of America and may be revised or deleted at any time without prior notice.
Dissemination of this information without the expressed written consent of the Public Affairs Office, Tulsa District U.S. Army Corps of Engineers is strictly prohibited.
These data are gathered electronically and, as presented, have not undergone any form of quality control. These data are not guaranteed to be valid or correct.
Go to home page.
Go to station list.

Upstream stations:

Downstream station:
Previous Day
Next Day
Current Day
    
SHEF ID:       TENO2     Tenkiller Lake
STATION TYPE:  Reservoir
Normal Pool:  Bottom =   594.50, Top =   632.00

               PRECIP PRECIP(A) ELEVATION   STORAGE   TW-ELEV    INFLOW   RELEASE  AIR-TEMP  WIND-DIRWIND-SPEED REL-HUMID SOLAR-RAD   VOLTAGE  BAT-LOAD
                   in        in        ft     ac-ft        ft       cfs       cfs         F       deg       mph         %      W/m2      volt      volt
              Ccp-Rev   Ccp-Rev   Ccp-Rev   Ccp-Rev   Ccp-Rev  Regi-Rev  Regi-Rev   Ccp-Rev   Ccp-Rev   Ccp-Rev   Ccp-Rev   Ccp-Rev   Ccp-Rev   Ccp-Rev
(US/Central)
03/07 00:00      0.00      0.00    640.92    791025    490.99       372     10073     38.12    205.90      3.99     54.02      0.00     13.74     13.30
03/07 01:00      0.00      0.00    640.86    790159    491.07       415     10064     35.82    226.40      3.56     53.60      0.00     13.74     13.30
03/07 02:00      0.00      0.00    640.84    789871    491.01       415     10064     34.72    228.00      3.72     55.73      1.00     13.74     13.30
03/07 03:00      0.00      0.00    640.77    788861    491.05       354     10062     33.62    228.00      3.42     65.07      0.00     13.74     13.30
03/07 04:00      0.00      0.00    640.74    788428    491.04       354     10061     33.17    228.20      3.55     61.84      1.00     13.74     13.18
03/07 05:00      0.00      0.00    640.69    787707    491.06       400     10060     31.86    234.10      2.73     66.96      0.00     13.74     13.30
03/07 06:00      0.00      0.00    640.64    786986    491.04       353     10059     31.64    227.40      3.53     68.86      0.00     13.74     13.30
03/07 07:00      0.00      0.00    640.61    786553    491.06       355     10058     30.97    230.60      2.99     80.21      2.00     13.73     13.18
03/07 08:00      0.00      0.00    640.54    785543    490.99       356     10057     32.74    221.70      3.90     68.80    116.00     13.74     13.18
03/07 09:00      0.00      0.00    640.51    785110    491.05       357     10096     34.93    209.20      3.41     64.77    287.00     13.73     13.18
03/07 10:00      0.00      0.00    640.46    784389    491.08       312     10094     38.23    160.20      2.63     54.63    468.00     13.73     13.18
03/07 11:00      0.00      0.00    640.41    783668    491.01       414     10093     38.34    213.90      4.84     60.68    608.00     13.74     13.18
03/07 12:00      0.00      0.00    640.36    782946    491.02       292     10092     40.66    203.60      3.96     47.25    723.00     13.74     13.18
03/07 13:00      0.00      0.00    640.32    782369    491.01       413      9905     43.95    209.70      2.96     39.01    568.00     13.73     13.24
03/07 14:00      0.00      0.00    640.27    781648    491.01       413     10089     45.27    212.60      4.70     36.14    644.00     13.73     13.24
03/07 15:00      0.00      0.00    640.24    781215    491.01       367     10089     47.03    212.30      4.63     35.34    640.00     13.73     13.24
03/07 16:00      0.00      0.00    640.19    780494    491.04       265     10087     48.34    197.30      3.74     32.23    493.00     13.73     13.24
03/07 17:00      0.00      0.00    640.15    779917    491.04       219     10087     49.33    211.70      3.83     31.50    315.00     13.73     13.24
03/07 18:00      0.00      0.00    640.09    779051    491.03        51     10085     48.67    215.90      2.52     44.93     77.00     13.73     13.24
03/07 19:00      0.00      0.00    640.04    778330    491.04         4     10084     43.29    257.40      0.57     51.40      4.00     13.74     13.30
03/07 20:00      0.00      0.00    640.00    777753    491.01         5     10083     39.11    259.70      0.48     70.87      1.00     13.74     13.30
03/07 21:00      0.00      0.00    639.95    777044    490.98         6     10082     37.13    268.90      0.39     74.96      0.00     13.74     13.30
03/07 22:00      0.00      0.00    639.91    776477    490.98         6     10081     34.61    266.10      0.39     83.14      0.00     13.74     13.30
03/07 23:00      0.00      0.00    639.87    775911    490.98         7     10080     32.95    266.80      0.39     88.15      0.00     13.74     13.30